Clarksburg, Kentucky
Current Conditions -  °F | °C
As of 4:15 PM on Monday 24 Nov 2014 (Local Time) from KFGX Reporting Station
Broken Clouds Broken Clouds  
Wind Chill: 42°   Ceiling: 3000
Heat Index: 49°   Visibility: 10mi
Dew Point: 38°   Wind: 21mph
Humidity: 68%   Direction: 260°W
Pressure: 29.75"   Gusts: 29mph
Location:  38.4929°N, 83.3898°W
Report Text: KFGX 242115Z AUTO 26018G25KT 10SM BKN030 09/04 A2975 RMK AO2 T00920036
Loading
Personal Weather Stations






























Interactive Weather Map New forecast layout! Learn more

10-Day Weather Forecast

Advertisements
Track Severe Weather on mobile